sensor_id;sensor_type;location;lat;lon;timestamp;temperature;humidity
3023;DHT22;1521;53.584;9.938;2023-02-01T00:01:18;5.40;99.90
3023;DHT22;1521;53.584;9.938;2023-02-01T00:03:43;5.40;99.90
3023;DHT22;1521;53.584;9.938;2023-02-01T00:06:09;5.40;1.00
3023;DHT22;1521;53.584;9.938;2023-02-01T00:08:35;5.40;99.90
3023;DHT22;1521;53.584;9.938;2023-02-01T00:11:03;5.50;1.00
3023;DHT22;1521;53.584;9.938;2023-02-01T00:13:31;5.40;1.00
3023;DHT22;1521;53.584;9.938;2023-02-01T00:16:05;5.40;1.00
3023;DHT22;1521;53.584;9.938;2023-02-01T00:18:31;5.40;2.60
3023;DHT22;1521;53.584;9.938;2023-02-01T00:20:56;5.40;1.00
3023;DHT22;1521;53.584;9.938;2023-02-01T00:23:22;5.40;1.00
3023;DHT22;1521;53.584;9.938;2023-02-01T00:25:48;5.40;99.90
3023;DHT22;1521;53.584;9.938;2023-02-01T00:28:13;5.40;1.00
3023;DHT22;1521;53.584;9.938;2023-02-01T00:30:39;5.40;1.00
3023;DHT22;1521;53.584;9.938;2023-02-01T00:33:04;5.40;1.00
3023;DHT22;1521;53.584;9.938;2023-02-01T00:35:30;5.50;1.00
3023;DHT22;1521;53.584;9.938;2023-02-01T00:37:56;5.50;99.90
3023;DHT22;1521;53.584;9.938;2023-02-01T00:40:24;5.50;99.90
3023;DHT22;1521;53.584;9.938;2023-02-01T00:42:49;5.50;1.00
3023;DHT22;1521;53.584;9.938;2023-02-01T00:45:15;5.50;99.90
3023;DHT22;1521;53.584;9.938;2023-02-01T00:47:41;5.60;99.90
3023;DHT22;1521;53.584;9.938;2023-02-01T00:50:07;5.60;1.00
3023;DHT22;1521;53.584;9.938;2023-02-01T00:52:32;5.60;97.80
3023;DHT22;1521;53.584;9.938;2023-02-01T00:54:58;5.60;99.90
3023;DHT22;1521;53.584;9.938;2023-02-01T00:57:23;5.70;1.00
3023;DHT22;1521;53.584;9.938;2023-02-01T00:59:49;5.70;1.00
3023;DHT22;1521;53.584;9.938;2023-02-01T01:02:15;5.70;48.90
3023;DHT22;1521;53.584;9.938;2023-02-01T01:04:40;5.70;1.00
3023;DHT22;1521;53.584;9.938;2023-02-01T01:07:06;5.70;99.90
3023;DHT22;1521;53.584;9.938;2023-02-01T01:09:31;5.70;99.90
3023;DHT22;1521;53.584;9.938;2023-02-01T01:11:57;5.70;1.00
3023;DHT22;1521;53.584;9.938;2023-02-01T01:14:28;5.70;3.30
3023;DHT22;1521;53.584;9.938;2023-02-01T01:16:54;5.70;1.00
3023;DHT22;1521;53.584;9.938;2023-02-01T01:19:19;5.70;6.80
3023;DHT22;1521;53.584;9.938;2023-02-01T01:21:45;5.70;99.90
3023;DHT22;1521;53.584;9.938;2023-02-01T01:24:10;5.70;2.90
3023;DHT22;1521;53.584;9.938;2023-02-01T01:26:36;5.80;1.00
3023;DHT22;1521;53.584;9.938;2023-02-01T01:29:01;5.70;1.00
3023;DHT22;1521;53.584;9.938;2023-02-01T01:31:28;5.70;1.00
3023;DHT22;1521;53.584;9.938;2023-02-01T01:33:55;5.70;1.00
3023;DHT22;1521;53.584;9.938;2023-02-01T01:36:21;5.70;1.00
3023;DHT22;1521;53.584;9.938;2023-02-01T01:38:48;5.70;1.00
3023;DHT22;1521;53.584;9.938;2023-02-01T01:41:17;5.70;1.00
3023;DHT22;1521;53.584;9.938;2023-02-01T01:44:04;5.80;1.00
3023;DHT22;1521;53.584;9.938;2023-02-01T01:46:36;5.80;99.90
3023;DHT22;1521;53.584;9.938;2023-02-01T01:49:11;5.80;90.00
3023;DHT22;1521;53.584;9.938;2023-02-01T01:51:42;5.80;99.90
3023;DHT22;1521;53.584;9.938;2023-02-01T01:54:15;5.80;99.90
3023;DHT22;1521;53.584;9.938;2023-02-01T01:56:43;5.90;99.90
3023;DHT22;1521;53.584;9.938;2023-02-01T01:59:12;5.80;21.20
3023;DHT22;1521;53.584;9.938;2023-02-01T02:01:38;5.80;99.90
3023;DHT22;1521;53.584;9.938;2023-02-01T02:04:04;5.80;99.90
3023;DHT22;1521;53.584;9.938;2023-02-01T02:09:04;5.80;93.70
3023;DHT22;1521;53.584;9.938;2023-02-01T02:11:29;5.90;99.90
3023;DHT22;1521;53.584;9.938;2023-02-01T02:13:57;5.90;98.70
3023;DHT22;1521;53.584;9.938;2023-02-01T02:27:56;5.80;99.90
3023;DHT22;1521;53.584;9.938;2023-02-01T02:33:21;5.80;1.00
3023;DHT22;1521;53.584;9.938;2023-02-01T02:36:36;5.90;1.00
3023;DHT22;1521;53.584;9.938;2023-02-01T02:44:49;5.80;1.00
3023;DHT22;1521;53.584;9.938;2023-02-01T02:50:47;5.80;99.90
3023;DHT22;1521;53.584;9.938;2023-02-01T02:53:41;5.80;99.90
3023;DHT22;1521;53.584;9.938;2023-02-01T02:56:30;5.70;99.90
3023;DHT22;1521;53.584;9.938;2023-02-01T02:59:17;5.70;99.90
3023;DHT22;1521;53.584;9.938;2023-02-01T03:02:04;5.70;99.90
3023;DHT22;1521;53.584;9.938;2023-02-01T03:04:52;5.60;1.00
3023;DHT22;1521;53.584;9.938;2023-02-01T03:07:53;5.60;6.70
3023;DHT22;1521;53.584;9.938;2023-02-01T03:10:30;5.60;27.70
3023;DHT22;1521;53.584;9.938;2023-02-01T03:13:04;5.60;99.90
3023;DHT22;1521;53.584;9.938;2023-02-01T03:18:06;5.50;99.90
3023;DHT22;1521;53.584;9.938;2023-02-01T03:20:36;5.50;99.90
3023;DHT22;1521;53.584;9.938;2023-02-01T03:23:04;5.40;99.90
3023;DHT22;1521;53.584;9.938;2023-02-01T03:25:33;5.40;1.00
3023;DHT22;1521;53.584;9.938;2023-02-01T03:28:08;5.40;1.00
3023;DHT22;1521;53.584;9.938;2023-02-01T03:30:37;5.40;1.00
3023;DHT22;1521;53.584;9.938;2023-02-01T03:33:06;5.30;99.90
3023;DHT22;1521;53.584;9.938;2023-02-01T03:38:37;5.10;99.90
3023;DHT22;1521;53.584;9.938;2023-02-01T03:44:24;5.00;1.00
3023;DHT22;1521;53.584;9.938;2023-02-01T03:46:52;5.10;1.00
3023;DHT22;1521;53.584;9.938;2023-02-01T03:49:29;5.00;1.00
3023;DHT22;1521;53.584;9.938;2023-02-01T03:51:57;5.10;1.00
3023;DHT22;1521;53.584;9.938;2023-02-01T03:54:24;5.00;1.00
3023;DHT22;1521;53.584;9.938;2023-02-01T03:56:51;5.00;1.00
3023;DHT22;1521;53.584;9.938;2023-02-01T03:59:19;5.00;1.00
3023;DHT22;1521;53.584;9.938;2023-02-01T04:01:44;5.00;1.00
3023;DHT22;1521;53.584;9.938;2023-02-01T04:04:11;5.00;1.00
3023;DHT22;1521;53.584;9.938;2023-02-01T04:06:45;5.00;1.00
3023;DHT22;1521;53.584;9.938;2023-02-01T04:09:11;5.00;1.00
3023;DHT22;1521;53.584;9.938;2023-02-01T04:11:37;5.00;1.00
3023;DHT22;1521;53.584;9.938;2023-02-01T04:14:02;5.00;1.00
3023;DHT22;1521;53.584;9.938;2023-02-01T04:16:30;5.00;1.00
3023;DHT22;1521;53.584;9.938;2023-02-01T04:18:56;5.10;1.00
3023;DHT22;1521;53.584;9.938;2023-02-01T04:21:22;5.10;1.00
3023;DHT22;1521;53.584;9.938;2023-02-01T04:23:48;5.00;1.00
3023;DHT22;1521;53.584;9.938;2023-02-01T04:26:14;5.00;1.00
3023;DHT22;1521;53.584;9.938;2023-02-01T04:28:41;5.10;1.00
3023;DHT22;1521;53.584;9.938;2023-02-01T04:31:07;5.10;1.00
3023;DHT22;1521;53.584;9.938;2023-02-01T04:33:32;5.10;1.00
3023;DHT22;1521;53.584;9.938;2023-02-01T04:35:58;5.10;1.00
3023;DHT22;1521;53.584;9.938;2023-02-01T04:38:24;5.10;1.00
3023;DHT22;1521;53.584;9.938;2023-02-01T04:40:49;5.10;1.00
3023;DHT22;1521;53.584;9.938;2023-02-01T04:43:16;5.10;1.00
3023;DHT22;1521;53.584;9.938;2023-02-01T04:45:47;5.00;1.00
3023;DHT22;1521;53.584;9.938;2023-02-01T04:48:12;4.90;1.00
3023;DHT22;1521;53.584;9.938;2023-02-01T04:50:38;4.90;1.00
3023;DHT22;1521;53.584;9.938;2023-02-01T04:53:03;4.80;1.00
3023;DHT22;1521;53.584;9.938;2023-02-01T04:55:29;4.80;1.00
3023;DHT22;1521;53.584;9.938;2023-02-01T04:57:56;4.80;1.00
3023;DHT22;1521;53.584;9.938;2023-02-01T05:00:22;4.80;1.00
3023;DHT22;1521;53.584;9.938;2023-02-01T05:02:48;4.70;1.00
3023;DHT22;1521;53.584;9.938;2023-02-01T05:05:13;4.70;1.00
3023;DHT22;1521;53.584;9.938;2023-02-01T05:07:39;4.70;1.00
3023;DHT22;1521;53.584;9.938;2023-02-01T05:10:05;4.60;1.00
3023;DHT22;1521;53.584;9.938;2023-02-01T05:12:30;4.50;1.00
3023;DHT22;1521;53.584;9.938;2023-02-01T05:15:15;4.30;1.00
3023;DHT22;1521;53.584;9.938;2023-02-01T05:17:40;4.10;1.00
3023;DHT22;1521;53.584;9.938;2023-02-01T05:20:07;4.00;1.00
3023;DHT22;1521;53.584;9.938;2023-02-01T05:22:33;3.90;1.00
3023;DHT22;1521;53.584;9.938;2023-02-01T05:24:58;3.80;1.00
3023;DHT22;1521;53.584;9.938;2023-02-01T05:27:24;3.80;1.00
3023;DHT22;1521;53.584;9.938;2023-02-01T05:29:50;3.70;1.00
3023;DHT22;1521;53.584;9.938;2023-02-01T05:32:15;3.70;1.00
3023;DHT22;1521;53.584;9.938;2023-02-01T05:34:41;3.60;1.00
3023;DHT22;1521;53.584;9.938;2023-02-01T05:37:06;3.60;1.00
3023;DHT22;1521;53.584;9.938;2023-02-01T05:39:32;3.60;1.00
3023;DHT22;1521;53.584;9.938;2023-02-01T05:41:57;3.60;1.00
3023;DHT22;1521;53.584;9.938;2023-02-01T05:44:23;3.50;1.00
3023;DHT22;1521;53.584;9.938;2023-02-01T05:46:49;3.50;1.00
3023;DHT22;1521;53.584;9.938;2023-02-01T05:49:14;3.50;1.00
3023;DHT22;1521;53.584;9.938;2023-02-01T05:51:40;3.50;1.00
3023;DHT22;1521;53.584;9.938;2023-02-01T05:54:05;3.50;8.90
3023;DHT22;1521;53.584;9.938;2023-02-01T05:56:31;3.40;1.00
3023;DHT22;1521;53.584;9.938;2023-02-01T05:58:56;3.30;6.30
3023;DHT22;1521;53.584;9.938;2023-02-01T06:01:22;3.30;12.70
3023;DHT22;1521;53.584;9.938;2023-02-01T06:03:48;3.20;13.20
3023;DHT22;1521;53.584;9.938;2023-02-01T06:06:13;3.20;22.50
3023;DHT22;1521;53.584;9.938;2023-02-01T06:08:39;3.20;40.60
3023;DHT22;1521;53.584;9.938;2023-02-01T06:11:07;3.20;56.60
3023;DHT22;1521;53.584;9.938;2023-02-01T06:13:33;3.20;70.80
3023;DHT22;1521;53.584;9.938;2023-02-01T06:15:59;3.20;90.10
3023;DHT22;1521;53.584;9.938;2023-02-01T06:18:25;3.20;99.90
3023;DHT22;1521;53.584;9.938;2023-02-01T06:20:55;3.20;99.90
3023;DHT22;1521;53.584;9.938;2023-02-01T06:23:21;3.30;99.90
3023;DHT22;1521;53.584;9.938;2023-02-01T06:26:00;3.30;99.90
3023;DHT22;1521;53.584;9.938;2023-02-01T06:28:26;3.30;99.90
3023;DHT22;1521;53.584;9.938;2023-02-01T06:30:52;3.40;99.90
3023;DHT22;1521;53.584;9.938;2023-02-01T06:33:18;3.50;99.90
3023;DHT22;1521;53.584;9.938;2023-02-01T06:35:44;3.50;99.90
3023;DHT22;1521;53.584;9.938;2023-02-01T06:38:13;3.60;99.90
3023;DHT22;1521;53.584;9.938;2023-02-01T06:40:39;3.60;99.90
3023;DHT22;1521;53.584;9.938;2023-02-01T06:43:06;3.70;99.90
3023;DHT22;1521;53.584;9.938;2023-02-01T06:45:32;3.70;99.90
3023;DHT22;1521;53.584;9.938;2023-02-01T06:47:59;3.70;99.90
3023;DHT22;1521;53.584;9.938;2023-02-01T06:50:26;3.80;99.90
3023;DHT22;1521;53.584;9.938;2023-02-01T06:52:52;3.80;99.90
3023;DHT22;1521;53.584;9.938;2023-02-01T06:55:17;3.80;99.90
3023;DHT22;1521;53.584;9.938;2023-02-01T06:57:43;3.90;99.90
3023;DHT22;1521;53.584;9.938;2023-02-01T07:00:09;3.90;99.90
3023;DHT22;1521;53.584;9.938;2023-02-01T07:02:35;3.90;99.90
3023;DHT22;1521;53.584;9.938;2023-02-01T07:05:00;4.00;99.90
3023;DHT22;1521;53.584;9.938;2023-02-01T07:07:26;4.00;99.90
3023;DHT22;1521;53.584;9.938;2023-02-01T07:09:51;4.00;99.90
3023;DHT22;1521;53.584;9.938;2023-02-01T07:12:19;4.00;99.90
3023;DHT22;1521;53.584;9.938;2023-02-01T07:14:44;4.00;99.90
3023;DHT22;1521;53.584;9.938;2023-02-01T07:17:10;4.00;99.90
3023;DHT22;1521;53.584;9.938;2023-02-01T07:19:35;4.10;99.90
3023;DHT22;1521;53.584;9.938;2023-02-01T07:22:01;4.20;99.90
3023;DHT22;1521;53.584;9.938;2023-02-01T07:24:27;4.20;99.90
3023;DHT22;1521;53.584;9.938;2023-02-01T07:26:53;4.20;99.90
3023;DHT22;1521;53.584;9.938;2023-02-01T07:29:18;4.30;99.90
3023;DHT22;1521;53.584;9.938;2023-02-01T07:31:44;4.40;99.90
3023;DHT22;1521;53.584;9.938;2023-02-01T07:34:10;4.50;99.90
3023;DHT22;1521;53.584;9.938;2023-02-01T07:36:35;4.50;99.90
3023;DHT22;1521;53.584;9.938;2023-02-01T07:39:04;4.50;99.90
3023;DHT22;1521;53.584;9.938;2023-02-01T07:41:30;4.50;99.90
3023;DHT22;1521;53.584;9.938;2023-02-01T07:43:55;4.50;99.90
3023;DHT22;1521;53.584;9.938;2023-02-01T07:46:22;4.60;99.90
3023;DHT22;1521;53.584;9.938;2023-02-01T07:48:48;4.70;99.90
3023;DHT22;1521;53.584;9.938;2023-02-01T07:51:15;4.70;99.90
3023;DHT22;1521;53.584;9.938;2023-02-01T07:53:41;4.80;99.90
3023;DHT22;1521;53.584;9.938;2023-02-01T07:56:15;4.90;99.90
3023;DHT22;1521;53.584;9.938;2023-02-01T07:58:42;4.90;99.90
3023;DHT22;1521;53.584;9.938;2023-02-01T08:01:15;4.90;99.90
3023;DHT22;1521;53.584;9.938;2023-02-01T08:04:01;5.00;99.90
3023;DHT22;1521;53.584;9.938;2023-02-01T08:06:28;5.00;99.90
3023;DHT22;1521;53.584;9.938;2023-02-01T08:08:54;5.10;99.90
3023;DHT22;1521;53.584;9.938;2023-02-01T08:11:21;5.10;99.90
3023;DHT22;1521;53.584;9.938;2023-02-01T08:13:47;5.10;99.90
3023;DHT22;1521;53.584;9.938;2023-02-01T08:16:14;5.10;99.90
3023;DHT22;1521;53.584;9.938;2023-02-01T08:18:40;5.10;99.90
3023;DHT22;1521;53.584;9.938;2023-02-01T08:21:14;5.20;98.90
3023;DHT22;1521;53.584;9.938;2023-02-01T08:23:41;5.20;85.90
3023;DHT22;1521;53.584;9.938;2023-02-01T08:26:20;5.30;69.20
3023;DHT22;1521;53.584;9.938;2023-02-01T08:28:51;5.40;56.00
3023;DHT22;1521;53.584;9.938;2023-02-01T08:31:19;5.50;22.90
3023;DHT22;1521;53.584;9.938;2023-02-01T08:33:52;5.60;1.00
3023;DHT22;1521;53.584;9.938;2023-02-01T08:36:22;5.70;1.00
3023;DHT22;1521;53.584;9.938;2023-02-01T08:38:50;5.70;1.00
3023;DHT22;1521;53.584;9.938;2023-02-01T08:41:19;5.70;1.00
3023;DHT22;1521;53.584;9.938;2023-02-01T08:43:45;5.60;1.00
3023;DHT22;1521;53.584;9.938;2023-02-01T08:46:11;5.50;1.00
3023;DHT22;1521;53.584;9.938;2023-02-01T08:48:38;5.40;1.00
3023;DHT22;1521;53.584;9.938;2023-02-01T08:51:06;5.40;1.00
3023;DHT22;1521;53.584;9.938;2023-02-01T08:53:35;5.40;1.00
3023;DHT22;1521;53.584;9.938;2023-02-01T08:56:02;5.40;1.00
3023;DHT22;1521;53.584;9.938;2023-02-01T08:58:27;5.40;1.00
3023;DHT22;1521;53.584;9.938;2023-02-01T09:00:53;5.50;99.90
3023;DHT22;1521;53.584;9.938;2023-02-01T09:03:19;5.50;1.00
3023;DHT22;1521;53.584;9.938;2023-02-01T09:05:45;5.60;1.00
3023;DHT22;1521;53.584;9.938;2023-02-01T09:08:11;5.80;1.00
3023;DHT22;1521;53.584;9.938;2023-02-01T09:10:41;5.90;99.90
3023;DHT22;1521;53.584;9.938;2023-02-01T09:13:08;5.90;99.90
3023;DHT22;1521;53.584;9.938;2023-02-01T09:15:34;5.80;99.90
3023;DHT22;1521;53.584;9.938;2023-02-01T09:18:00;5.80;99.90
3023;DHT22;1521;53.584;9.938;2023-02-01T09:20:26;5.90;99.90
3023;DHT22;1521;53.584;9.938;2023-02-01T09:22:52;6.00;99.90
3023;DHT22;1521;53.584;9.938;2023-02-01T09:25:18;6.10;99.90
3023;DHT22;1521;53.584;9.938;2023-02-01T09:27:44;6.10;99.90
3023;DHT22;1521;53.584;9.938;2023-02-01T09:30:10;6.10;1.00
3023;DHT22;1521;53.584;9.938;2023-02-01T09:32:36;6.20;1.00
3023;DHT22;1521;53.584;9.938;2023-02-01T09:35:02;6.30;1.00
3023;DHT22;1521;53.584;9.938;2023-02-01T09:37:27;6.40;99.90
3023;DHT22;1521;53.584;9.938;2023-02-01T09:39:53;6.40;1.00
3023;DHT22;1521;53.584;9.938;2023-02-01T09:45:26;6.40;99.90
3023;DHT22;1521;53.584;9.938;2023-02-01T09:47:59;6.40;99.90
3023;DHT22;1521;53.584;9.938;2023-02-01T09:50:34;6.40;99.90
3023;DHT22;1521;53.584;9.938;2023-02-01T09:55:51;6.60;1.00
3023;DHT22;1521;53.584;9.938;2023-02-01T10:00:53;6.70;99.90
3023;DHT22;1521;53.584;9.938;2023-02-01T10:03:19;6.70;99.90
3023;DHT22;1521;53.584;9.938;2023-02-01T10:09:11;6.90;1.00
3023;DHT22;1521;53.584;9.938;2023-02-01T10:14:55;6.90;99.90
3023;DHT22;1521;53.584;9.938;2023-02-01T10:20:12;6.90;1.00
3023;DHT22;1521;53.584;9.938;2023-02-01T10:22:45;7.00;99.90
3023;DHT22;1521;53.584;9.938;2023-02-01T10:25:23;7.00;1.00
3023;DHT22;1521;53.584;9.938;2023-02-01T10:27:51;6.90;21.70
3023;DHT22;1521;53.584;9.938;2023-02-01T10:30:22;6.90;99.90
3023;DHT22;1521;53.584;9.938;2023-02-01T10:32:52;6.80;1.00
3023;DHT22;1521;53.584;9.938;2023-02-01T10:35:31;6.70;99.90
3023;DHT22;1521;53.584;9.938;2023-02-01T10:38:00;6.50;1.00
3023;DHT22;1521;53.584;9.938;2023-02-01T10:40:27;6.40;99.90
3023;DHT22;1521;53.584;9.938;2023-02-01T10:43:00;6.30;1.00
3023;DHT22;1521;53.584;9.938;2023-02-01T10:45:32;6.20;26.10
3023;DHT22;1521;53.584;9.938;2023-02-01T10:47:59;6.10;99.90
3023;DHT22;1521;53.584;9.938;2023-02-01T10:50:40;6.20;99.90
3023;DHT22;1521;53.584;9.938;2023-02-01T10:53:20;6.20;99.90
3023;DHT22;1521;53.584;9.938;2023-02-01T10:55:51;6.10;99.90
3023;DHT22;1521;53.584;9.938;2023-02-01T10:58:20;6.00;99.90
3023;DHT22;1521;53.584;9.938;2023-02-01T11:01:02;6.00;99.90
3023;DHT22;1521;53.584;9.938;2023-02-01T11:03:54;5.90;1.00
3023;DHT22;1521;53.584;9.938;2023-02-01T11:06:28;5.90;1.00
3023;DHT22;1521;53.584;9.938;2023-02-01T11:09:00;6.00;1.00
3023;DHT22;1521;53.584;9.938;2023-02-01T11:14:15;6.00;1.00
3023;DHT22;1521;53.584;9.938;2023-02-01T11:16:47;6.00;99.90
3023;DHT22;1521;53.584;9.938;2023-02-01T11:19:15;6.10;99.90
3023;DHT22;1521;53.584;9.938;2023-02-01T11:21:42;6.20;99.90
3023;DHT22;1521;53.584;9.938;2023-02-01T11:24:24;6.20;99.90
3023;DHT22;1521;53.584;9.938;2023-02-01T11:26:50;6.30;99.90
3023;DHT22;1521;53.584;9.938;2023-02-01T11:29:19;6.30;99.90
3023;DHT22;1521;53.584;9.938;2023-02-01T11:31:50;6.30;99.90
3023;DHT22;1521;53.584;9.938;2023-02-01T11:34:24;6.30;99.90
3023;DHT22;1521;53.584;9.938;2023-02-01T11:36:50;6.40;99.90
3023;DHT22;1521;53.584;9.938;2023-02-01T11:39:31;6.40;94.80
3023;DHT22;1521;53.584;9.938;2023-02-01T11:44:36;6.50;1.00
3023;DHT22;1521;53.584;9.938;2023-02-01T11:47:27;6.50;1.00
3023;DHT22;1521;53.584;9.938;2023-02-01T11:49:59;6.50;1.00
3023;DHT22;1521;53.584;9.938;2023-02-01T11:55:19;6.50;1.00
3023;DHT22;1521;53.584;9.938;2023-02-01T11:58:20;6.50;1.00
3023;DHT22;1521;53.584;9.938;2023-02-01T12:01:07;6.40;99.90
3023;DHT22;1521;53.584;9.938;2023-02-01T12:22:17;5.80;99.90
3023;DHT22;1521;53.584;9.938;2023-02-01T12:28:14;5.70;1.00
3023;DHT22;1521;53.584;9.938;2023-02-01T12:34:15;5.50;1.00
3023;DHT22;1521;53.584;9.938;2023-02-01T12:38:58;5.30;1.00
3023;DHT22;1521;53.584;9.938;2023-02-01T12:44:31;5.20;1.00
3023;DHT22;1521;53.584;9.938;2023-02-01T12:50:19;4.90;1.00
3023;DHT22;1521;53.584;9.938;2023-02-01T12:52:52;4.80;1.00
3023;DHT22;1521;53.584;9.938;2023-02-01T12:55:35;4.70;1.00
3023;DHT22;1521;53.584;9.938;2023-02-01T12:58:21;4.70;1.00
3023;DHT22;1521;53.584;9.938;2023-02-01T13:00:58;4.70;1.00
3023;DHT22;1521;53.584;9.938;2023-02-01T13:06:35;4.70;1.00
3023;DHT22;1521;53.584;9.938;2023-02-01T13:09:15;4.70;1.00
3023;DHT22;1521;53.584;9.938;2023-02-01T13:11:44;4.70;1.00
3023;DHT22;1521;53.584;9.938;2023-02-01T13:17:05;4.70;1.00
3023;DHT22;1521;53.584;9.938;2023-02-01T13:22:37;5.60;1.00
3023;DHT22;1521;53.584;9.938;2023-02-01T13:25:13;7.80;99.90
3023;DHT22;1521;53.584;9.938;2023-02-01T13:27:39;9.90;99.90
3023;DHT22;1521;53.584;9.938;2023-02-01T13:40:43;10.40;1.00
3023;DHT22;1521;53.584;9.938;2023-02-01T13:43:22;9.40;17.20
3023;DHT22;1521;53.584;9.938;2023-02-01T13:45:52;8.20;99.90
3023;DHT22;1521;53.584;9.938;2023-02-01T13:48:50;7.60;99.90
3023;DHT22;1521;53.584;9.938;2023-02-01T13:51:15;6.90;99.90
3023;DHT22;1521;53.584;9.938;2023-02-01T13:53:48;6.40;1.00
3023;DHT22;1521;53.584;9.938;2023-02-01T13:56:19;6.10;1.00
3023;DHT22;1521;53.584;9.938;2023-02-01T13:58:46;5.90;99.90
3023;DHT22;1521;53.584;9.938;2023-02-01T14:08:44;6.00;99.90
3023;DHT22;1521;53.584;9.938;2023-02-01T14:11:31;6.10;99.90
3023;DHT22;1521;53.584;9.938;2023-02-01T14:19:29;7.00;1.00
3023;DHT22;1521;53.584;9.938;2023-02-01T14:24:50;6.80;99.90
3023;DHT22;1521;53.584;9.938;2023-02-01T14:27:25;6.50;99.90
3023;DHT22;1521;53.584;9.938;2023-02-01T14:29:57;6.30;99.90
3023;DHT22;1521;53.584;9.938;2023-02-01T14:32:30;6.20;1.00
3023;DHT22;1521;53.584;9.938;2023-02-01T14:34:59;5.90;99.90
3023;DHT22;1521;53.584;9.938;2023-02-01T14:37:30;5.40;99.90
3023;DHT22;1521;53.584;9.938;2023-02-01T14:40:00;5.20;1.00
3023;DHT22;1521;53.584;9.938;2023-02-01T14:47:50;4.80;99.90
3023;DHT22;1521;53.584;9.938;2023-02-01T14:53:16;4.80;1.00
3023;DHT22;1521;53.584;9.938;2023-02-01T15:01:26;4.60;32.30
3023;DHT22;1521;53.584;9.938;2023-02-01T15:04:11;4.60;1.00
3023;DHT22;1521;53.584;9.938;2023-02-01T15:14:47;4.70;99.90
3023;DHT22;1521;53.584;9.938;2023-02-01T15:17:20;4.70;1.00
3023;DHT22;1521;53.584;9.938;2023-02-01T15:20:01;4.70;1.00
3023;DHT22;1521;53.584;9.938;2023-02-01T15:22:29;4.70;99.90
3023;DHT22;1521;53.584;9.938;2023-02-01T15:24:58;4.70;35.30
3023;DHT22;1521;53.584;9.938;2023-02-01T15:27:25;4.70;1.00
3023;DHT22;1521;53.584;9.938;2023-02-01T15:29:51;4.60;99.90
3023;DHT22;1521;53.584;9.938;2023-02-01T15:32:35;4.60;99.90
3023;DHT22;1521;53.584;9.938;2023-02-01T15:35:01;4.60;1.00
3023;DHT22;1521;53.584;9.938;2023-02-01T15:37:28;4.50;1.00
3023;DHT22;1521;53.584;9.938;2023-02-01T15:40:18;4.50;99.90
3023;DHT22;1521;53.584;9.938;2023-02-01T15:42:56;4.40;99.90
3023;DHT22;1521;53.584;9.938;2023-02-01T15:45:27;4.40;1.00
3023;DHT22;1521;53.584;9.938;2023-02-01T15:47:55;4.50;99.90
3023;DHT22;1521;53.584;9.938;2023-02-01T15:50:21;4.50;1.00
3023;DHT22;1521;53.584;9.938;2023-02-01T15:52:49;4.50;1.00
3023;DHT22;1521;53.584;9.938;2023-02-01T15:55:38;4.50;99.90
3023;DHT22;1521;53.584;9.938;2023-02-01T15:58:25;4.60;99.90
3023;DHT22;1521;53.584;9.938;2023-02-01T16:00:56;4.60;1.00
3023;DHT22;1521;53.584;9.938;2023-02-01T16:03:39;4.60;33.20
3023;DHT22;1521;53.584;9.938;2023-02-01T16:06:12;4.50;1.00
3023;DHT22;1521;53.584;9.938;2023-02-01T16:08:53;4.50;1.00
3023;DHT22;1521;53.584;9.938;2023-02-01T16:11:32;4.50;99.90
3023;DHT22;1521;53.584;9.938;2023-02-01T16:14:05;4.50;1.00
3023;DHT22;1521;53.584;9.938;2023-02-01T16:16:30;4.60;1.00
3023;DHT22;1521;53.584;9.938;2023-02-01T16:18:56;4.60;99.90
3023;DHT22;1521;53.584;9.938;2023-02-01T16:21:22;4.60;99.90
3023;DHT22;1521;53.584;9.938;2023-02-01T16:23:51;4.60;99.90
3023;DHT22;1521;53.584;9.938;2023-02-01T16:26:18;4.60;1.00
3023;DHT22;1521;53.584;9.938;2023-02-01T16:28:44;4.60;1.00
3023;DHT22;1521;53.584;9.938;2023-02-01T16:31:13;4.60;1.00
3023;DHT22;1521;53.584;9.938;2023-02-01T16:33:50;4.60;1.00
3023;DHT22;1521;53.584;9.938;2023-02-01T16:36:17;4.70;1.00
3023;DHT22;1521;53.584;9.938;2023-02-01T16:38:45;4.70;1.00
3023;DHT22;1521;53.584;9.938;2023-02-01T16:41:14;4.70;1.00
3023;DHT22;1521;53.584;9.938;2023-02-01T16:43:40;4.70;1.00
3023;DHT22;1521;53.584;9.938;2023-02-01T16:46:15;4.70;1.00
3023;DHT22;1521;53.584;9.938;2023-02-01T16:48:46;4.80;99.90
3023;DHT22;1521;53.584;9.938;2023-02-01T16:51:15;4.80;99.90
3023;DHT22;1521;53.584;9.938;2023-02-01T16:53:42;4.80;1.00
3023;DHT22;1521;53.584;9.938;2023-02-01T16:56:20;4.80;48.50
3023;DHT22;1521;53.584;9.938;2023-02-01T16:58:46;4.80;1.00
3023;DHT22;1521;53.584;9.938;2023-02-01T17:01:14;4.80;99.90
3023;DHT22;1521;53.584;9.938;2023-02-01T17:03:41;4.90;99.90
3023;DHT22;1521;53.584;9.938;2023-02-01T17:06:09;4.90;32.90
3023;DHT22;1521;53.584;9.938;2023-02-01T17:08:38;5.00;1.00
3023;DHT22;1521;53.584;9.938;2023-02-01T17:11:06;5.00;99.90
3023;DHT22;1521;53.584;9.938;2023-02-01T17:13:33;5.10;99.90
3023;DHT22;1521;53.584;9.938;2023-02-01T17:16:05;5.10;99.90
3023;DHT22;1521;53.584;9.938;2023-02-01T17:18:33;5.20;99.90
3023;DHT22;1521;53.584;9.938;2023-02-01T17:21:00;5.20;1.00
3023;DHT22;1521;53.584;9.938;2023-02-01T17:23:28;5.20;99.90
3023;DHT22;1521;53.584;9.938;2023-02-01T17:25:55;5.30;99.90
3023;DHT22;1521;53.584;9.938;2023-02-01T17:28:20;5.30;99.90
3023;DHT22;1521;53.584;9.938;2023-02-01T17:30:46;5.30;25.80
3023;DHT22;1521;53.584;9.938;2023-02-01T17:33:29;5.30;44.10
3023;DHT22;1521;53.584;9.938;2023-02-01T17:35:55;5.30;1.00
3023;DHT22;1521;53.584;9.938;2023-02-01T17:38:22;5.40;1.00
3023;DHT22;1521;53.584;9.938;2023-02-01T17:40:48;5.40;1.00
3023;DHT22;1521;53.584;9.938;2023-02-01T17:43:21;5.40;99.90
3023;DHT22;1521;53.584;9.938;2023-02-01T17:45:59;5.50;99.90
3023;DHT22;1521;53.584;9.938;2023-02-01T17:48:25;5.40;99.90
3023;DHT22;1521;53.584;9.938;2023-02-01T17:50:51;5.40;99.90
3023;DHT22;1521;53.584;9.938;2023-02-01T17:53:19;5.50;99.90
3023;DHT22;1521;53.584;9.938;2023-02-01T17:55:49;5.50;99.90
3023;DHT22;1521;53.584;9.938;2023-02-01T17:58:15;5.50;99.90
3023;DHT22;1521;53.584;9.938;2023-02-01T18:00:42;5.50;99.90
3023;DHT22;1521;53.584;9.938;2023-02-01T18:03:22;5.50;99.90
3023;DHT22;1521;53.584;9.938;2023-02-01T18:05:49;5.60;99.90
3023;DHT22;1521;53.584;9.938;2023-02-01T18:08:16;5.50;99.90
3023;DHT22;1521;53.584;9.938;2023-02-01T18:10:42;5.50;99.90
3023;DHT22;1521;53.584;9.938;2023-02-01T18:13:10;5.50;99.90
3023;DHT22;1521;53.584;9.938;2023-02-01T18:15:37;5.50;99.90
3023;DHT22;1521;53.584;9.938;2023-02-01T18:18:04;5.50;99.90
3023;DHT22;1521;53.584;9.938;2023-02-01T18:20:30;5.50;99.90
3023;DHT22;1521;53.584;9.938;2023-02-01T18:22:56;5.50;99.90
3023;DHT22;1521;53.584;9.938;2023-02-01T18:25:24;5.50;99.90
3023;DHT22;1521;53.584;9.938;2023-02-01T18:27:51;5.50;99.90
3023;DHT22;1521;53.584;9.938;2023-02-01T18:30:18;5.50;99.90
3023;DHT22;1521;53.584;9.938;2023-02-01T18:32:44;5.40;99.90
3023;DHT22;1521;53.584;9.938;2023-02-01T18:35:25;5.40;99.90
3023;DHT22;1521;53.584;9.938;2023-02-01T18:37:52;5.40;99.90
3023;DHT22;1521;53.584;9.938;2023-02-01T18:40:24;5.40;99.90
3023;DHT22;1521;53.584;9.938;2023-02-01T18:42:50;5.40;99.90
3023;DHT22;1521;53.584;9.938;2023-02-01T18:45:36;5.30;99.90
3023;DHT22;1521;53.584;9.938;2023-02-01T18:48:04;5.30;99.90
3023;DHT22;1521;53.584;9.938;2023-02-01T18:50:31;5.40;99.90
3023;DHT22;1521;53.584;9.938;2023-02-01T18:52:58;5.40;78.50
3023;DHT22;1521;53.584;9.938;2023-02-01T18:55:27;5.40;83.70
3023;DHT22;1521;53.584;9.938;2023-02-01T18:57:53;5.40;91.00
3023;DHT22;1521;53.584;9.938;2023-02-01T19:00:20;5.40;95.20
3023;DHT22;1521;53.584;9.938;2023-02-01T19:02:47;5.40;93.20
3023;DHT22;1521;53.584;9.938;2023-02-01T19:05:13;5.40;99.90
3023;DHT22;1521;53.584;9.938;2023-02-01T19:07:40;5.30;99.90
3023;DHT22;1521;53.584;9.938;2023-02-01T19:10:11;5.50;90.60
3023;DHT22;1521;53.584;9.938;2023-02-01T19:12:37;5.50;85.30